Elk Mountain, NC

4:06 AM EST on February 24, 2017 (GMT -0500)
MSD | | Change Station

Elev 1952 ft 35.65 °N, 82.60 °W | Updated 12 minutes ago

Clear
Clear
47.2 °F
Feels Like 47 °F
N
3.0
Wind Variable Wind from South
Gusts 4.0 mph

Today
High -- | Low -- °F
--% Chance of Precip.
Yesterday
High -- | Low -- °F
Precip. -- in
Pressure 29.90 in
Visibility 5.0 miles
Clouds Clear
Windchill 47 °F
Dew Point 46 °F
Humidity 96%
Rainfall 0.00 in
Snow Depth Not available.
7:06 AM 6:21 PM
Waning Crescent, 6% visible
METAR KAVL 240854Z AUTO 00000KT 5SM R35/2800VP6000FT BR CLR 07/05 A2993 RMK AO2 SLP123 T00670050 58003
Pressure 29.90 in
Visibility 5.0 miles
Clouds Clear
Windchill 47 °F
Dew Point 46 °F
Humidity 96%
Rainfall 0.00 in
Snow Depth Not available.
7:06 AM 6:21 PM
Waning Crescent, 6% visible
METAR KAVL 240854Z AUTO 00000KT 5SM R35/2800VP6000FT BR CLR 07/05 A2993 RMK AO2 SLP123 T00670050 58003

Get Your Daily Forecast Email!

Thanks for signing up!

Be on the lookout for a verification email in your inbox.

You'll start receiving the daily forecast at 8 AM.

×

10-Day Weather Forecast

Almanac

Astronomy

Feb. 24, 2017 Rise Set
Actual Time
Civil Twilight
Nautical Twilight
Astronomical Twilight
Moon
Length of Visible Light
Length of Day
Tomorrow will be .
, % of the Moon is Illuminated

Today's Extremes

State Highs State Lows

Community

WunderPhotos

Upload Photos

1,962,540 photos uploaded!

WunderBlog® & News

Nearby

Air Quality

  Air Quality AQ Index Pollutant
Not available.

Snow Depth

Station Depth Elevation

Earthquake Activity

City Distance Mag. Time & Date
Minimum magnitude displayed is 2.5.

Coastal Water Temperatures

Place Temperature

Stations

Nearby Weather Stations

Station Location Temp. Windchill Dew Point Humidity Wind Precip. Elev Updated Type
                   

Watches & Warnings

There are currently no watches in effect.